Flight Track Log - Related Links

Times and Time Zones

All times are in EDT time to prevent confusion due to time zone crossing. See the EJM90 flight status page for this flight to view local times or setup timezone preferences in your user account.


Time Position Orientation Groundspeed Altitude Reporting Facility
EDT Latitude Longitude Course Direction KTS MPH feet Rate Location/Type
Sun 08:45:43 AM 28.5500 -81.3167 319° Northwest 159 183 800  Level Orlando TRACON
Sun 08:47:01 AM 28.6000 -81.2500 49° Northeast 228 262 1,500 522 Climbing Orlando TRACON
Sun 08:48:01 AM 28.6667 -81.2500 360° North 217 250 2,000 1,048 Climbing Orlando TRACON
Sun 08:49:07 AM 28.7333 -81.2500 360° North 237 273 3,700 1,750 Climbing Orlando TRACON
Sun 08:50:01 AM 28.8000 -81.2833 336° Northwest 279 321 5,500 2,895 Climbing Orlando TRACON
Sun 08:51:00 AM 29.2053 -81.3887 319° Northwest  Level FlightAware Approximate
Sun 08:51:01 AM 28.8667 -81.3167 336° Northwest 299 344 9,200  Level Orlando TRACON
Sun 08:51:48 AM 28.9358 -81.3506 337° Northwest 331 381 12,200 3,701 Climbing Jacksonville Center
Sun 08:52:48 AM 29.0217 -81.3847 341° North 340 391 15,800 3,200 Climbing Jacksonville Center
Sun 08:53:48 AM 29.1158 -81.3928 356° North 334 384 18,600 2,750 Climbing Jacksonville Center
Sun 08:54:48 AM 29.2119 -81.4056 353° North 348 400 21,300 2,650 Climbing Jacksonville Center
Sun 08:55:48 AM 29.3164 -81.4136 356° North 365 420 23,900 2,400 Climbing Jacksonville Center
Sun 08:56:48 AM 29.4250 -81.4214 356° North 379 436 26,100 2,067 Climbing Jacksonville Center
Sun 08:58:48 AM 29.6300 -81.4422 355° North 386 444 30,100 1,933 Climbing Jacksonville Center
Sun 08:59:48 AM 29.7447 -81.4550 354° North 397 457 31,900 1,450 Climbing Jacksonville Center
Sun 09:00:48 AM 29.8558 -81.4939 343° North 403 464 33,000 550 Climbing Jacksonville Center
Sun 09:01:48 AM 29.9775 -81.5425 341° North 430 495 33,000 150 Level Jacksonville Center
Sun 09:02:48 AM 30.0969 -81.5914 341° North 444 511 33,300 1,700 Climbing Jacksonville Center
Sun 09:03:48 AM 30.2122 -81.6356 342° North 450 518 36,400 2,650 Climbing Jacksonville Center
Sun 09:04:48 AM 30.3275 -81.6606 349° North 437 503 38,600 1,800 Climbing Jacksonville Center
Sun 09:05:48 AM 30.4467 -81.6781 353° North 425 489 40,000 1,250 Climbing Jacksonville Center
Sun 09:06:48 AM 30.5594 -81.6961 352° North 425 489 41,100 1,000 Climbing Jacksonville Center
Sun 09:07:48 AM 30.6892 -81.7136 353° North 420 483 42,000 850 Climbing Jacksonville Center
Sun 09:08:48 AM 30.8019 -81.7317 352° North 420 483 42,800 157 Climbing Jacksonville Center
Sun 09:14:09 AM 31.4280 -81.8210 352° North 465 535 43,000 34 Climbing FlightAware ADS-B
Sun 09:14:46 AM 31.4950 -81.8300 353° North 465 535 43,000  Level FlightAware ADS-B
Sun 09:15:26 AM 31.5680 -81.8410 353° North 465 535 43,000  Level FlightAware ADS-B
Sun 09:16:10 AM 31.6870 -81.8590 353° North 465 535 43,000  Level FlightAware ADS-B
Sun 09:16:54 AM 31.7740 -81.8710 353° North 465 535 43,000  Level FlightAware ADS-B
Sun 09:17:35 AM 31.8760 -81.8870 352° North 463 533 43,000  Level FlightAware ADS-B
Sun 09:18:24 AM 32.0070 -81.9070 353° North 465 535 43,000  Level FlightAware ADS-B
Sun 09:19:16 AM 32.1230 -81.9240 353° North 465 535 43,000  Level FlightAware ADS-B
Sun 09:20:16 AM 32.1390 -81.9260 354° North 468 539 43,000 -55 Level FlightAware ADS-B
Sun 09:21:06 AM 32.3650 -81.9590 353° North 465 535 42,900 -400 Descending FlightAware ADS-B
Sun 09:21:46 AM 32.4510 -81.9720 353° North 464 534 42,400 -907 Descending FlightAware ADS-B
Sun 09:22:32 AM 32.5450 -81.9860 353° North 463 533 41,600 -1,067 Descending FlightAware ADS-B
Sun 09:23:16 AM 32.6420 -82.0010 353° North 462 532 40,800 -1,071 Descending FlightAware ADS-B
Sun 09:23:56 AM 32.7270 -82.0130 353° North 458 527 40,100 -1,037 Descending FlightAware ADS-B
Sun 09:24:37 AM 32.8120 -82.0260 353° North 452 520 39,400 -1,043 Descending FlightAware ADS-B
Sun 09:25:05 AM 32.8720 -82.0350 353° North 452 520 38,900 -1,083 Descending FlightAware ADS-B
Sun 09:25:49 AM 32.9620 -82.0490 353° North 457 526 38,100 -1,034 Descending FlightAware ADS-B
Sun 09:26:32 AM 33.0510 -82.0620 353° North 460 529 37,400 -1,024 Descending FlightAware ADS-B
Sun 09:27:11 AM 33.1350 -82.0750 353° North 464 534 36,700 -1,063 Descending FlightAware ADS-B
Sun 09:27:51 AM 33.2180 -82.0880 353° North 467 537 36,000 -1,074 Descending FlightAware ADS-B
Sun 09:28:46 AM 33.3350 -82.1060 353° North 472 543 35,000 -1,074 Descending FlightAware ADS-B
Sun 09:29:26 AM 33.4230 -82.1190 353° North 471 542 34,300 -1,024 Descending FlightAware ADS-B
Sun 09:30:08 AM 33.5120 -82.1330 353° North 474 545 33,600 -1,125 Descending FlightAware ADS-B
Sun 09:30:46 AM 33.6000 -82.1460 353° North 481 554 32,800 -1,446 Descending FlightAware ADS-B
Sun 09:31:31 AM 33.6990 -82.1610 353° North 482 555 31,600 -1,906 Descending FlightAware ADS-B
Sun 09:32:11 AM 33.7880 -82.1790 350° North 479 551 30,100 -2,329 Descending FlightAware ADS-B
Sun 09:32:56 AM 33.8850 -82.2010 349° North 477 549 28,300 -2,480 Descending FlightAware ADS-B
Sun 09:33:26 AM 33.9510 -82.2150 350° North 475 547 27,000 -2,492 Descending FlightAware ADS-B
Sun 09:34:01 AM 34.0260 -82.2310 350° North 484 557 25,600 -2,400 Descending FlightAware ADS-B
Sun 09:34:36 AM 34.1020 -82.2480 350° North 488 562 24,200 -2,175 Descending FlightAware ADS-B
Sun 09:35:21 AM 34.2040 -82.2700 350° North 493 567 22,700 -1,829 Descending FlightAware ADS-B
Sun 09:36:21 AM 34.3380 -82.2990 350° North 481 554 21,000 -1,516 Descending FlightAware ADS-B
Sun 09:36:56 AM 34.4100 -82.3150 350° North 473 544 20,300 -1,263 Descending FlightAware ADS-B
Sun 09:37:37 AM 34.5000 -82.3350 350° North 475 547 19,400 -1,239 Descending FlightAware ADS-B
Sun 09:38:28 AM 34.6020 -82.3570 350° North 461 531 18,400 -1,535 Descending FlightAware ADS-B
Sun 09:39:03 AM 34.6800 -82.3750 349° North 442 509 17,200 -2,258 Descending FlightAware ADS-B
Sun 09:40:01 AM 34.7400 -82.3880 350° North 435 501 14,900 -2,250 Descending FlightAware ADS-B
Sun 09:40:47 AM 34.8830 -82.4190 350° North 384 442 13,300 -2,045 Descending FlightAware ADS-B
Sun 09:41:29 AM 34.9560 -82.4390 347° North 376 433 11,900 -1,902 Descending FlightAware ADS-B
Sun 09:42:09 AM 35.0140 -82.4710 336° Northwest 342 394 10,700 -1,821 Descending FlightAware ADS-B
Sun 09:42:25 AM 35.0390 -82.4800 344° North 332 382 10,200 -1,579 Descending FlightAware ADS-B
Sun 09:42:47 AM 35.0700 -82.4850 352° North 321 369 9,700 -638 Descending FlightAware ADS-B
Sun 09:43:12 AM 35.1010 -82.4900 352° North 321 369 9,700 -1,773 Level FlightAware ADS-B
Sun 09:43:31 AM 35.1340 -82.4680 29° Northeast 297 342 8,400 -2,426 Descending FlightAware ADS-B
Sun 09:43:59 AM 35.1700 -82.4570 14° North 286 329 7,800 -1,263 Descending FlightAware ADS-B
Sun 09:44:28 AM 35.2000 -82.4490 12° North 282 325 7,200 -1,424 Descending FlightAware ADS-B
Sun 09:44:58 AM 35.2430 -82.4590 349° North 271 312 6,400 -1,778 Descending FlightAware ADS-B
Sun 09:45:22 AM 35.2700 -82.4710 340° North 264 304 5,600 -1,889 Descending FlightAware ADS-B
Sun 09:45:52 AM 35.3000 -82.4830 342° North 238 274 4,700 -1,636 Descending FlightAware ADS-B
Sun 09:46:28 AM 35.3330 -82.4960 342° North 213 245 3,800 -844 Descending FlightAware ADS-B
Sun 09:46:56 AM 35.3550 -82.5050 342° North 213 245 3,800 5,838 Level FlightAware ADS-B
Sun 09:47:42 AM 35.4189 -82.5147 342° North 251 289 11,000 9,391 Climbing Atlanta Center

Login

Don't have an account? Register now (free) for customized features, flight alerts, and more!